createdAt,value
2022-08-23T00:02:29.435Z,20.25
2022-08-23T00:05:09.333Z,20.23
2022-08-23T00:07:39.367Z,20.25
2022-08-23T00:10:10.213Z,20.23
2022-08-23T00:12:39.040Z,20.23
2022-08-23T00:15:09.679Z,20.21
2022-08-23T00:17:39.173Z,20.21
2022-08-23T00:20:09.225Z,20.17
2022-08-23T00:22:39.938Z,20.18
2022-08-23T00:25:10.651Z,20.18
2022-08-23T00:27:39.433Z,20.24
2022-08-23T00:30:10.723Z,20.22
2022-08-23T00:32:41.748Z,20.29
2022-08-23T00:35:12.382Z,20.31
2022-08-23T00:38:32.702Z,20.32
2022-08-23T00:40:44.025Z,20.32
2022-08-23T00:43:34.969Z,20.32
2022-08-23T00:46:30.929Z,20.29
2022-08-23T00:49:02.580Z,20.32
2022-08-23T00:51:46.836Z,20.29
2022-08-23T00:54:21.879Z,20.31
2022-08-23T00:56:50.668Z,20.32
2022-08-23T00:59:19.432Z,20.33
2022-08-23T01:01:47.955Z,20.28
2022-08-23T01:04:17.756Z,20.27
2022-08-23T01:06:51.962Z,20.27
2022-08-23T01:09:22.416Z,20.28
2022-08-23T01:11:55.974Z,20.28
2022-08-23T01:14:31.146Z,20.26
2022-08-23T01:17:05.565Z,20.24
2022-08-23T01:19:38.617Z,20.22
2022-08-23T01:22:13.481Z,20.19
2022-08-23T01:25:06.000Z,20.18
2022-08-23T01:27:34.380Z,20.15
2022-08-23T01:30:04.453Z,20.05
2022-08-23T01:32:33.025Z,19.95
2022-08-23T01:35:01.050Z,19.89
2022-08-23T01:37:29.358Z,19.85
2022-08-23T01:39:58.962Z,19.78
2022-08-23T01:42:27.508Z,19.73
2022-08-23T01:44:55.384Z,19.69
2022-08-23T01:47:23.414Z,19.66
2022-08-23T01:49:51.840Z,19.62
2022-08-23T01:52:19.735Z,19.59
2022-08-23T01:54:47.620Z,19.58
2022-08-23T01:57:17.527Z,19.59
2022-08-23T01:59:45.611Z,19.58
2022-08-23T02:02:13.777Z,19.56
2022-08-23T02:04:41.805Z,19.52
2022-08-23T02:07:09.780Z,19.51
2022-08-23T02:09:38.409Z,19.49
2022-08-23T02:12:07.055Z,19.48
2022-08-23T02:14:42.012Z,19.46
2022-08-23T02:17:18.505Z,19.46
2022-08-23T02:19:46.805Z,19.50
2022-08-23T02:22:14.950Z,19.46
2022-08-23T02:24:44.687Z,19.43
2022-08-23T02:27:15.348Z,19.41
2022-08-23T02:29:47.024Z,19.37
2022-08-23T02:32:18.166Z,19.33
2022-08-23T02:34:51.045Z,19.32
2022-08-23T02:37:35.829Z,19.25
2022-08-23T02:40:06.211Z,19.22
2022-08-23T02:42:34.334Z,19.22
2022-08-23T02:45:05.398Z,19.24
2022-08-23T02:47:36.829Z,19.24
2022-08-23T02:50:15.717Z,19.24
2022-08-23T02:52:44.997Z,19.28
2022-08-23T02:55:13.233Z,19.22
2022-08-23T02:57:41.229Z,19.27
2022-08-23T03:00:15.523Z,19.32
2022-08-23T03:02:43.716Z,19.32
2022-08-23T03:05:13.320Z,19.29
2022-08-23T03:07:41.765Z,19.24
2022-08-23T03:10:11.980Z,19.25
2022-08-23T03:12:45.660Z,19.28
2022-08-23T03:15:16.212Z,19.23
2022-08-23T03:17:44.608Z,19.18
2022-08-23T03:20:13.575Z,19.20
2022-08-23T03:22:41.681Z,19.22
2022-08-23T03:25:19.235Z,19.28
2022-08-23T03:28:07.349Z,19.44
2022-08-23T03:30:40.133Z,19.52
2022-08-23T03:33:09.145Z,19.61
2022-08-23T03:35:37.332Z,19.61
2022-08-23T03:38:06.129Z,19.56
2022-08-23T03:40:36.157Z,19.45
2022-08-23T03:43:05.281Z,19.44
2022-08-23T03:45:34.231Z,19.30
2022-08-23T03:48:04.159Z,19.47
2022-08-23T03:50:35.329Z,19.57
2022-08-23T03:53:03.526Z,19.58
2022-08-23T03:55:31.684Z,19.53
2022-08-23T03:58:01.173Z,19.55
2022-08-23T04:00:29.494Z,19.47
2022-08-23T04:02:57.657Z,19.43
2022-08-23T04:05:28.883Z,19.39
2022-08-23T04:08:09.260Z,19.40
2022-08-23T04:10:39.330Z,19.47
2022-08-23T04:13:09.059Z,19.57
2022-08-23T04:15:37.651Z,19.60
2022-08-23T04:18:06.554Z,19.74
2022-08-23T04:20:39.165Z,19.78
2022-08-23T04:23:07.249Z,19.79
2022-08-23T04:25:45.913Z,19.79
2022-08-23T04:28:14.574Z,19.83
2022-08-23T04:30:43.347Z,19.87
2022-08-23T04:33:18.030Z,19.86
2022-08-23T04:35:48.745Z,19.78
2022-08-23T04:38:24.655Z,19.65
2022-08-23T04:41:13.120Z,19.56
2022-08-23T04:43:42.488Z,19.60
2022-08-23T04:46:15.363Z,19.67
2022-08-23T04:48:45.836Z,19.70
2022-08-23T04:51:15.729Z,19.80
2022-08-23T04:53:44.697Z,19.84
2022-08-23T04:56:31.189Z,19.95
2022-08-23T04:58:59.216Z,20.04
2022-08-23T05:01:29.364Z,20.10
2022-08-23T05:03:58.137Z,20.09
2022-08-23T05:06:29.648Z,20.08
2022-08-23T05:08:58.021Z,20.09
2022-08-23T05:11:29.141Z,20.15
2022-08-23T05:13:57.674Z,20.20
2022-08-23T05:16:25.857Z,20.20
2022-08-23T05:18:59.508Z,20.22
2022-08-23T05:21:29.133Z,20.24
2022-08-23T05:23:56.980Z,20.25
2022-08-23T05:26:27.037Z,20.25
2022-08-23T05:28:54.940Z,20.25
2022-08-23T05:31:30.481Z,20.29
2022-08-23T05:34:00.993Z,20.30
2022-08-23T05:36:38.257Z,20.30
2022-08-23T05:39:17.233Z,20.27
2022-08-23T05:42:03.933Z,20.25
2022-08-23T05:44:36.238Z,20.24
2022-08-23T05:47:10.389Z,20.24
2022-08-23T05:49:45.027Z,20.20
2022-08-23T05:52:14.968Z,20.21
2022-08-23T05:54:45.020Z,20.23
2022-08-23T05:57:31.266Z,20.24
2022-08-23T05:59:59.891Z,20.26
2022-08-23T06:02:27.999Z,20.27
2022-08-23T06:04:57.599Z,20.28
2022-08-23T06:07:27.087Z,20.28
2022-08-23T06:09:55.977Z,20.31
2022-08-23T06:12:24.031Z,20.36
2022-08-23T06:14:52.692Z,20.43
2022-08-23T06:17:20.934Z,20.49
2022-08-23T06:19:48.935Z,20.53
2022-08-23T06:22:37.724Z,20.60
2022-08-23T06:25:09.710Z,20.65
2022-08-23T06:27:53.548Z,20.66
2022-08-23T06:30:21.466Z,20.66
2022-08-23T06:33:09.637Z,20.70
2022-08-23T06:35:47.847Z,20.66
2022-08-23T06:38:22.959Z,20.78
2022-08-23T06:41:02.039Z,20.82
2022-08-23T06:43:41.061Z,20.85
2022-08-23T06:46:23.563Z,20.92
2022-08-23T06:48:53.138Z,20.96
2022-08-23T06:51:26.606Z,21.09
2022-08-23T06:54:07.277Z,21.23
2022-08-23T06:56:46.405Z,21.32
2022-08-23T06:59:18.981Z,21.33
2022-08-23T07:02:15.501Z,21.34
2022-08-23T07:04:58.797Z,21.41
2022-08-23T07:07:54.409Z,21.42
2022-08-23T07:10:23.841Z,21.34
2022-08-23T07:12:52.394Z,21.26
2022-08-23T07:15:22.024Z,21.29
2022-08-23T07:17:50.180Z,21.27
2022-08-23T07:20:19.230Z,21.27
2022-08-23T07:22:47.231Z,21.29
2022-08-23T07:25:15.604Z,21.30
2022-08-23T07:27:49.920Z,21.34
2022-08-23T07:30:21.104Z,21.41
2022-08-23T07:32:50.211Z,21.48
2022-08-23T07:35:27.081Z,21.58
2022-08-23T07:37:57.253Z,21.65
2022-08-23T07:40:30.055Z,21.71
2022-08-23T07:43:04.213Z,21.78
2022-08-23T07:45:32.711Z,21.84
2022-08-23T07:48:03.215Z,21.84
2022-08-23T07:50:37.367Z,21.84
2022-08-23T07:53:37.337Z,21.75
2022-08-23T07:56:07.723Z,21.71
2022-08-23T07:58:56.011Z,21.76
2022-08-23T08:01:53.392Z,21.82
2022-08-23T08:04:23.079Z,21.80
2022-08-23T08:07:10.376Z,21.88
2022-08-23T08:09:44.893Z,21.90
2022-08-23T08:12:13.001Z,21.89
2022-08-23T08:14:44.974Z,21.84
2022-08-23T08:17:16.946Z,21.82
2022-08-23T08:20:23.165Z,21.82
2022-08-23T08:23:09.316Z,21.86
2022-08-23T08:26:02.385Z,21.93
2022-08-23T08:28:31.534Z,21.99
2022-08-23T08:31:01.215Z,22.07
2022-08-23T08:33:31.344Z,22.13
2022-08-23T08:36:03.579Z,22.19
2022-08-23T08:38:36.781Z,22.22
2022-08-23T08:41:17.428Z,22.45
2022-08-23T08:43:59.185Z,22.52
2022-08-23T08:46:41.962Z,22.56
2022-08-23T08:49:19.422Z,22.72
2022-08-23T08:51:52.574Z,22.80
2022-08-23T08:54:25.860Z,22.92
2022-08-23T08:56:58.394Z,22.95
2022-08-23T08:59:37.902Z,22.92
2022-08-23T09:02:22.061Z,22.90
2022-08-23T09:04:59.263Z,22.87
2022-08-23T09:07:38.590Z,22.78
2022-08-23T09:10:27.056Z,22.84
2022-08-23T09:13:31.871Z,22.64
2022-08-23T09:16:16.082Z,22.65
2022-08-23T09:18:46.868Z,22.69
2022-08-23T09:21:16.656Z,22.73
2022-08-23T09:23:46.898Z,22.75
2022-08-23T09:26:25.257Z,22.73
2022-08-23T09:28:56.775Z,22.79
2022-08-23T09:31:38.758Z,22.94
2022-08-23T09:34:09.516Z,22.97
2022-08-23T09:36:46.754Z,22.81
2022-08-23T09:39:30.861Z,22.83
2022-08-23T09:42:05.160Z,22.85
2022-08-23T09:44:37.814Z,22.83
2022-08-23T09:47:11.144Z,23.10
2022-08-23T09:49:45.728Z,23.07
2022-08-23T09:52:26.127Z,23.20
2022-08-23T09:55:05.485Z,23.40
2022-08-23T09:57:39.536Z,23.46
2022-08-23T10:00:24.714Z,23.35
2022-08-23T10:02:57.627Z,23.31
2022-08-23T10:05:38.668Z,23.04
2022-08-23T10:08:11.031Z,23.04
2022-08-23T10:10:51.148Z,23.02
2022-08-23T10:13:24.204Z,22.99
2022-08-23T10:16:03.049Z,22.92
2022-08-23T10:18:50.865Z,22.91
2022-08-23T10:21:31.427Z,23.02
2022-08-23T10:24:22.743Z,23.14
2022-08-23T10:27:27.169Z,23.28
2022-08-23T10:30:02.989Z,23.38
2022-08-23T10:32:44.957Z,23.45
2022-08-23T10:35:29.279Z,23.49
2022-08-23T10:38:12.870Z,23.61
2022-08-23T10:40:57.333Z,23.71
2022-08-23T10:43:33.962Z,23.77
2022-08-23T10:46:04.637Z,23.68
2022-08-23T10:48:38.621Z,23.69
2022-08-23T10:51:11.873Z,23.83
2022-08-23T10:53:46.757Z,23.93
2022-08-23T10:56:19.199Z,24.02
2022-08-23T10:58:57.354Z,24.01
2022-08-23T11:01:32.010Z,23.99
2022-08-23T11:04:04.580Z,23.99
2022-08-23T11:07:00.250Z,24.04
2022-08-23T11:09:51.679Z,24.10
2022-08-23T11:12:26.936Z,24.03
2022-08-23T11:15:10.639Z,24.03
2022-08-23T11:17:55.123Z,23.99
2022-08-23T11:21:02.733Z,24.01
2022-08-23T11:23:51.972Z,24.02
2022-08-23T11:27:06.750Z,24.10
2022-08-23T11:29:43.810Z,24.13
2022-08-23T11:32:45.388Z,24.12
2022-08-23T11:35:43.064Z,24.20
2022-08-23T11:38:14.115Z,24.13
2022-08-23T11:41:13.272Z,24.05
2022-08-23T11:43:44.428Z,23.83
2022-08-23T11:46:32.277Z,23.81
2022-08-23T11:49:31.909Z,23.78
2022-08-23T11:52:12.880Z,23.93
2022-08-23T11:54:57.374Z,24.01
2022-08-23T11:57:37.997Z,24.21
2022-08-23T12:00:17.768Z,24.35
2022-08-23T12:03:05.590Z,24.55
2022-08-23T12:06:10.632Z,24.72
2022-08-23T12:09:01.685Z,24.73
2022-08-23T12:12:03.289Z,24.84
2022-08-23T12:14:37.440Z,24.91
2022-08-23T12:17:43.736Z,24.98
2022-08-23T12:20:28.184Z,25.11
2022-08-23T12:23:07.732Z,25.10
2022-08-23T12:25:37.339Z,25.17
2022-08-23T12:28:19.556Z,25.14
2022-08-23T12:30:56.828Z,25.09
2022-08-23T12:33:35.046Z,25.09
2022-08-23T12:36:12.313Z,25.02
2022-08-23T12:38:56.609Z,25.07
2022-08-23T12:41:27.499Z,25.02
2022-08-23T12:43:59.974Z,25.06
2022-08-23T12:46:38.498Z,25.07
2022-08-23T12:49:08.240Z,25.04
2022-08-23T12:51:42.793Z,24.96
2022-08-23T12:54:17.653Z,24.86
2022-08-23T12:56:47.345Z,24.85
2022-08-23T12:59:33.326Z,25.05
2022-08-23T13:02:03.998Z,25.40
2022-08-23T13:04:33.678Z,25.49
2022-08-23T13:07:06.855Z,25.52
2022-08-23T13:09:39.591Z,25.58
2022-08-23T13:12:09.423Z,25.57
2022-08-23T13:14:43.684Z,25.53
2022-08-23T13:17:36.678Z,25.47
2022-08-23T13:20:28.655Z,25.60
2022-08-23T13:23:01.015Z,25.76
2022-08-23T13:25:33.300Z,25.82
2022-08-23T13:28:03.361Z,25.88
2022-08-23T13:30:33.376Z,26.07
2022-08-23T13:33:22.225Z,26.40
2022-08-23T13:35:52.487Z,26.41
2022-08-23T13:38:26.770Z,26.35
2022-08-23T13:41:01.480Z,26.47
2022-08-23T13:43:33.888Z,26.53
2022-08-23T13:46:12.393Z,26.91
2022-08-23T13:48:48.980Z,27.09
2022-08-23T13:51:31.483Z,27.12
2022-08-23T13:54:05.421Z,27.24
2022-08-23T13:56:39.641Z,27.38
2022-08-23T13:59:20.229Z,27.50
2022-08-23T14:01:48.569Z,27.79
2022-08-23T14:04:16.777Z,28.09
2022-08-23T14:06:44.709Z,28.39
2022-08-23T14:09:17.376Z,28.57
2022-08-23T14:11:49.496Z,28.61
2022-08-23T14:14:17.837Z,28.69
2022-08-23T14:16:46.011Z,28.63
2022-08-23T14:19:16.623Z,28.55
2022-08-23T14:22:02.040Z,28.83
2022-08-23T14:24:29.979Z,29.05
2022-08-23T14:26:59.340Z,29.05
2022-08-23T14:29:29.136Z,29.04
2022-08-23T14:31:59.119Z,29.00
2022-08-23T14:34:28.334Z,29.08
2022-08-23T14:39:44.576Z,29.07
2022-08-23T14:42:16.467Z,29.01
2022-08-23T14:44:44.374Z,29.11
2022-08-23T14:47:12.285Z,29.00
2022-08-23T14:49:40.256Z,28.66
2022-08-23T14:52:08.591Z,28.72
2022-08-23T14:54:36.792Z,28.90
2022-08-23T14:57:04.960Z,29.08
2022-08-23T14:59:34.288Z,29.29
2022-08-23T15:02:03.259Z,29.16
2022-08-23T15:04:34.714Z,29.02
2022-08-23T15:07:19.742Z,28.57
2022-08-23T15:09:48.679Z,28.41
2022-08-23T15:15:12.368Z,28.20
2022-08-23T15:17:47.871Z,28.09
2022-08-23T15:20:16.458Z,27.87
2022-08-23T15:22:45.193Z,27.62
2022-08-23T15:25:25.293Z,27.23
2022-08-23T15:27:54.010Z,26.93
2022-08-23T15:30:24.808Z,26.66
2022-08-23T15:32:56.597Z,26.63
2022-08-23T15:35:26.150Z,26.68
2022-08-23T15:37:55.921Z,27.01
2022-08-23T15:40:25.716Z,27.36
2022-08-23T15:42:54.201Z,27.55
2022-08-23T15:45:23.900Z,27.77
2022-08-23T15:47:53.996Z,27.72
2022-08-23T15:50:25.890Z,27.95
2022-08-23T15:52:53.916Z,28.04
2022-08-23T15:55:22.389Z,28.13
2022-08-23T15:57:52.793Z,27.66
2022-08-23T16:00:24.473Z,27.38
2022-08-23T16:03:20.549Z,27.54
2022-08-23T16:05:44.355Z,27.73
2022-08-23T16:08:18.483Z,27.87
2022-08-23T16:10:46.737Z,27.88
2022-08-23T16:13:14.628Z,27.74
2022-08-23T16:15:43.949Z,27.74
2022-08-23T16:18:12.478Z,27.73
2022-08-23T16:20:40.826Z,27.75
2022-08-23T16:23:09.016Z,27.72
2022-08-23T16:25:37.861Z,27.54
2022-08-23T16:28:07.380Z,27.46
2022-08-23T16:30:35.780Z,27.44
2022-08-23T16:33:05.237Z,27.33
2022-08-23T16:35:33.227Z,27.37
2022-08-23T16:38:01.144Z,27.49
2022-08-23T16:40:29.078Z,27.44
2022-08-23T16:42:57.487Z,27.23
2022-08-23T16:45:26.306Z,27.10
2022-08-23T16:47:54.648Z,27.01
2022-08-23T16:50:23.974Z,26.89
2022-08-23T16:52:51.946Z,26.94
2022-08-23T16:55:20.176Z,26.86
2022-08-23T16:57:48.089Z,26.85
2022-08-23T17:00:16.607Z,26.54
2022-08-23T17:02:45.031Z,26.28
2022-08-23T17:05:16.482Z,26.16
2022-08-23T17:07:45.885Z,25.93
2022-08-23T17:10:16.080Z,25.75
2022-08-23T17:12:47.029Z,25.60
2022-08-23T17:15:20.244Z,25.38
2022-08-23T17:17:48.966Z,25.13
2022-08-23T17:20:18.075Z,24.97
2022-08-23T17:22:47.737Z,24.84
2022-08-23T17:25:16.793Z,24.63
2022-08-23T17:27:46.945Z,24.43
2022-08-23T17:30:17.257Z,24.35
2022-08-23T17:32:47.571Z,24.22
2022-08-23T17:35:18.169Z,24.10
2022-08-23T17:37:48.255Z,23.98
2022-08-23T17:40:21.438Z,23.87
2022-08-23T17:42:49.964Z,23.76
2022-08-23T17:45:18.927Z,23.69
2022-08-23T17:47:47.583Z,23.62
2022-08-23T17:50:18.172Z,23.54
2022-08-23T17:52:47.637Z,23.49
2022-08-23T17:55:17.135Z,23.48
2022-08-23T17:57:46.949Z,23.38
2022-08-23T18:00:17.755Z,23.25
2022-08-23T18:02:45.661Z,23.24
2022-08-23T18:05:13.565Z,23.17
2022-08-23T18:07:41.461Z,23.18
2022-08-23T18:10:12.300Z,23.17
2022-08-23T18:12:40.569Z,23.12
2022-08-23T18:15:09.530Z,23.11
2022-08-23T18:17:38.762Z,23.07
2022-08-23T18:20:08.413Z,23.03
2022-08-23T18:22:37.427Z,23.00
2022-08-23T18:25:05.675Z,23.05
2022-08-23T18:27:52.324Z,23.06
2022-08-23T18:30:20.309Z,22.97
2022-08-23T18:32:48.180Z,22.98
2022-08-23T18:35:16.552Z,23.01
2022-08-23T18:37:44.540Z,23.01
2022-08-23T18:40:13.498Z,23.02
2022-08-23T18:42:42.769Z,22.97
2022-08-23T18:45:11.065Z,22.91
2022-08-23T18:47:38.932Z,22.86
2022-08-23T18:50:10.060Z,22.79
2022-08-23T18:52:38.492Z,22.77
2022-08-23T18:55:07.421Z,22.79
2022-08-23T18:57:35.971Z,22.85
2022-08-23T19:00:07.456Z,22.80
2022-08-23T19:02:35.606Z,22.77
2022-08-23T19:05:03.969Z,22.86
2022-08-23T19:07:32.446Z,22.87
2022-08-23T19:10:01.238Z,22.86
2022-08-23T19:12:29.398Z,22.85
2022-08-23T19:14:57.712Z,22.85
2022-08-23T19:17:27.642Z,22.82
2022-08-23T19:19:55.597Z,22.71
2022-08-23T19:22:24.425Z,22.66
2022-08-23T19:24:52.874Z,22.62
2022-08-23T19:27:20.905Z,22.53
2022-08-23T19:29:48.897Z,22.48
2022-08-23T19:32:17.385Z,22.52
2022-08-23T19:34:46.711Z,22.58
2022-08-23T19:37:20.762Z,22.53
2022-08-23T19:39:52.081Z,22.66
2022-08-23T19:42:20.795Z,22.69
2022-08-23T19:44:49.519Z,22.66
2022-08-23T19:47:20.151Z,22.69
2022-08-23T19:49:51.004Z,22.66
2022-08-23T19:52:18.932Z,22.65
2022-08-23T19:54:46.824Z,22.66
2022-08-23T19:57:14.840Z,22.56
2022-08-23T19:59:43.124Z,22.58
2022-08-23T20:02:13.020Z,22.52
2022-08-23T20:04:41.410Z,22.49
2022-08-23T20:07:10.690Z,22.48
2022-08-23T20:09:38.654Z,22.47
2022-08-23T20:12:07.543Z,22.44
2022-08-23T20:14:35.440Z,22.42
2022-08-23T20:17:06.571Z,22.42
2022-08-23T20:19:35.175Z,22.37
2022-08-23T20:22:17.569Z,22.31
2022-08-23T20:24:52.120Z,22.28
2022-08-23T20:27:25.459Z,22.23
2022-08-23T20:29:59.734Z,22.27
2022-08-23T20:32:27.784Z,22.27
2022-08-23T20:34:55.865Z,22.24
2022-08-23T20:37:24.142Z,22.25
2022-08-23T20:39:53.725Z,22.25
2022-08-23T20:42:21.708Z,22.26
2022-08-23T20:44:49.602Z,22.28
2022-08-23T20:47:17.547Z,22.26
2022-08-23T20:49:45.927Z,22.19
2022-08-23T20:52:13.804Z,22.14
2022-08-23T20:54:41.762Z,22.14
2022-08-23T20:57:11.038Z,22.12
2022-08-23T20:59:43.724Z,22.09
2022-08-23T21:02:12.703Z,22.08
2022-08-23T21:04:40.659Z,22.09
2022-08-23T21:07:09.251Z,21.96
2022-08-23T21:09:37.215Z,21.94
2022-08-23T21:12:06.021Z,21.95
2022-08-23T21:14:35.300Z,21.97
2022-08-23T21:17:03.180Z,21.99
2022-08-23T21:19:31.281Z,21.98
2022-08-23T21:21:59.385Z,21.98
2022-08-23T21:24:27.271Z,22.01
2022-08-23T21:26:55.160Z,22.02
2022-08-23T21:29:23.329Z,22.01
2022-08-23T21:31:52.681Z,21.95
2022-08-23T21:34:20.609Z,21.91
2022-08-23T21:36:51.173Z,21.86
2022-08-23T21:39:19.141Z,21.86
2022-08-23T21:41:48.151Z,21.85
2022-08-23T21:44:18.179Z,21.88
2022-08-23T21:46:46.431Z,21.89
2022-08-23T21:49:16.080Z,21.86
2022-08-23T21:51:45.479Z,21.77
2022-08-23T21:54:14.475Z,21.69
2022-08-23T21:56:42.651Z,21.76
2022-08-23T21:59:13.283Z,21.76
2022-08-23T22:01:42.116Z,21.77
2022-08-23T22:04:13.286Z,21.75
2022-08-23T22:06:46.115Z,21.76
2022-08-23T22:09:25.838Z,21.76
2022-08-23T22:12:00.322Z,21.77
2022-08-23T22:14:31.362Z,21.78
2022-08-23T22:17:00.169Z,21.78
2022-08-23T22:19:28.868Z,21.77
2022-08-23T22:21:58.060Z,21.74
2022-08-23T22:24:26.495Z,21.72
2022-08-23T22:26:55.615Z,21.69
2022-08-23T22:29:24.295Z,21.70
2022-08-23T22:31:52.316Z,21.74
2022-08-23T22:34:20.181Z,21.74
2022-08-23T22:36:51.977Z,21.72
2022-08-23T22:39:22.869Z,21.72
2022-08-23T22:41:50.875Z,21.70
2022-08-23T22:44:18.846Z,21.68
2022-08-23T22:46:47.000Z,21.70
2022-08-23T22:49:15.019Z,21.66
2022-08-23T22:51:43.760Z,21.66
2022-08-23T22:54:12.340Z,21.68
2022-08-23T22:56:44.445Z,21.70
2022-08-23T22:59:13.937Z,21.73
2022-08-23T23:01:47.737Z,21.74
2022-08-23T23:04:17.468Z,21.76
2022-08-23T23:06:45.444Z,21.80
2022-08-23T23:09:14.301Z,21.81
2022-08-23T23:11:45.545Z,21.79
2022-08-23T23:14:14.660Z,21.75
2022-08-23T23:16:43.032Z,21.74
2022-08-23T23:19:29.555Z,21.73
2022-08-23T23:21:59.278Z,21.69
2022-08-23T23:24:29.197Z,21.68
2022-08-23T23:26:58.926Z,21.69
2022-08-23T23:29:27.912Z,21.69
2022-08-23T23:31:56.123Z,21.71
2022-08-23T23:34:25.073Z,21.73
2022-08-23T23:36:55.835Z,21.71
2022-08-23T23:39:23.917Z,21.66
2022-08-23T23:41:52.010Z,21.69
2022-08-23T23:44:29.181Z,21.59
2022-08-23T23:47:00.700Z,21.65
2022-08-23T23:49:33.058Z,21.63
2022-08-23T23:52:02.893Z,21.61
2022-08-23T23:54:31.380Z,21.57
2022-08-23T23:56:59.390Z,21.55
2022-08-23T23:59:28.939Z,21.53
